createdAt,value
2019-04-01T00:02:03.157Z,4.58
2019-04-01T00:04:35.976Z,4.15
2019-04-01T00:07:11.433Z,3.98
2019-04-01T00:09:44.144Z,3.85
2019-04-01T00:12:21.002Z,4.12
2019-04-01T00:14:52.309Z,3.70
2019-04-01T00:17:22.697Z,4.58
2019-04-01T00:19:52.977Z,3.77
2019-04-01T00:22:23.605Z,3.70
2019-04-01T00:24:54.581Z,3.62
2019-04-01T00:27:23.941Z,3.27
2019-04-01T00:29:56.147Z,3.72
2019-04-01T00:32:27.434Z,3.65
2019-04-01T00:34:57.288Z,3.40
2019-04-01T00:37:28.068Z,3.37
2019-04-01T00:40:01.094Z,3.17
2019-04-01T00:45:09.959Z,3.65
2019-04-01T00:47:39.867Z,3.62
2019-04-01T00:52:40.743Z,3.05
2019-04-01T00:55:12.828Z,2.95
2019-04-01T00:57:43.220Z,3.58
2019-04-01T01:00:18.855Z,2.98
2019-04-01T01:02:48.159Z,3.47
2019-04-01T01:05:17.392Z,3.17
2019-04-01T01:07:48.512Z,3.90
2019-04-01T01:10:22.144Z,3.65
2019-04-01T01:12:58.285Z,3.35
2019-04-01T01:15:28.523Z,2.80
2019-04-01T01:17:57.666Z,2.67
2019-04-01T01:20:30.838Z,2.92
2019-04-01T01:23:08.089Z,2.90
2019-04-01T01:25:40.765Z,3.47
2019-04-01T01:28:10.033Z,3.20
2019-04-01T01:30:45.015Z,3.30
2019-04-01T01:33:14.321Z,3.17
2019-04-01T01:35:43.582Z,3.17
2019-04-01T01:38:16.199Z,3.92
2019-04-01T01:40:46.313Z,2.90
2019-04-01T01:43:15.648Z,2.98
2019-04-01T01:45:48.973Z,3.27
2019-04-01T01:48:19.750Z,3.05
2019-04-01T01:50:51.735Z,3.33
2019-04-01T01:53:22.939Z,2.90
2019-04-01T01:55:54.606Z,2.75
2019-04-01T01:58:27.419Z,3.33
2019-04-01T02:00:57.566Z,2.80
2019-04-01T02:03:26.755Z,2.70
2019-04-01T02:05:55.933Z,2.62
2019-04-01T02:08:25.117Z,3.10
2019-04-01T02:11:01.470Z,2.98
2019-04-01T02:13:30.682Z,3.10
2019-04-01T02:16:00.838Z,3.42
2019-04-01T02:18:30.137Z,3.02
2019-04-01T02:21:00.434Z,3.08
2019-04-01T02:23:30.530Z,2.80
2019-04-01T02:26:02.136Z,3.08
2019-04-01T02:28:31.448Z,2.98
2019-04-01T02:31:01.931Z,2.65
2019-04-01T02:33:31.228Z,3.25
2019-04-01T02:36:00.522Z,2.87
2019-04-01T02:38:30.364Z,2.67
2019-04-01T02:41:02.200Z,2.20
2019-04-01T02:43:31.554Z,3.15
2019-04-01T02:46:04.630Z,2.95
2019-04-01T02:51:02.479Z,2.55
2019-04-01T02:53:33.104Z,2.60
2019-04-01T02:56:02.418Z,2.98
2019-04-01T02:58:31.706Z,3.10
2019-04-01T03:01:01.856Z,2.70
2019-04-01T03:03:31.742Z,2.50
2019-04-01T03:06:04.167Z,2.62
2019-04-01T03:08:33.421Z,3.00
2019-04-01T03:11:10.032Z,2.98
2019-04-01T03:13:38.624Z,2.85
2019-04-01T03:16:08.996Z,3.17
2019-04-01T03:18:38.229Z,3.35
2019-04-01T03:21:07.494Z,2.70
2019-04-01T03:23:37.061Z,2.58
2019-04-01T03:26:08.330Z,2.40
2019-04-01T03:28:38.340Z,2.95
2019-04-01T03:31:13.815Z,3.40
2019-04-01T03:33:44.998Z,2.20
2019-04-01T03:36:15.282Z,3.33
2019-04-01T03:38:44.480Z,2.85
2019-04-01T03:41:16.534Z,2.35
2019-04-01T03:43:45.897Z,2.40
2019-04-01T03:46:21.096Z,2.75
2019-04-01T03:48:51.641Z,2.62
2019-04-01T03:51:20.917Z,3.10
2019-04-01T03:53:50.200Z,3.35
2019-04-01T03:56:19.431Z,2.42
2019-04-01T03:58:51.937Z,2.67
2019-04-01T04:03:51.527Z,2.55
2019-04-01T04:06:21.810Z,3.25
2019-04-01T04:08:53.955Z,2.95
2019-04-01T04:11:24.585Z,3.40
2019-04-01T04:13:55.447Z,2.22
2019-04-01T04:16:30.404Z,2.55
2019-04-01T04:18:59.689Z,2.92
2019-04-01T04:21:30.598Z,3.15
2019-04-01T04:24:06.099Z,2.83
2019-04-01T04:26:36.733Z,3.35
2019-04-01T04:29:06.099Z,3.30
2019-04-01T04:31:36.361Z,2.90
2019-04-01T04:34:05.771Z,2.42
2019-04-01T04:36:36.609Z,2.62
2019-04-01T04:39:06.256Z,2.90
2019-04-01T04:41:35.586Z,3.12
2019-04-01T04:44:07.362Z,3.02
2019-04-01T04:46:37.733Z,2.77
2019-04-01T04:49:08.627Z,2.70
2019-04-01T04:51:40.723Z,3.12
2019-04-01T04:54:14.657Z,3.35
2019-04-01T04:56:49.732Z,3.58
2019-04-01T04:59:26.995Z,3.05
2019-04-01T05:01:57.038Z,3.15
2019-04-01T05:04:29.908Z,2.92
2019-04-01T05:07:00.843Z,3.08
2019-04-01T05:09:36.544Z,3.58
2019-04-01T05:12:13.506Z,2.90
2019-04-01T05:14:48.357Z,2.92
2019-04-01T05:17:24.789Z,4.40
2019-04-01T05:19:54.829Z,2.70
2019-04-01T05:22:25.428Z,3.58
2019-04-01T05:24:58.338Z,2.87
2019-04-01T05:27:29.922Z,3.33
2019-04-01T05:30:04.988Z,3.17
2019-04-01T05:32:39.960Z,2.85
2019-04-01T05:35:13.101Z,3.40
2019-04-01T05:37:44.020Z,2.95
2019-04-01T05:40:18.267Z,2.83
2019-04-01T05:42:50.074Z,2.60
2019-04-01T05:45:22.400Z,2.90
2019-04-01T05:47:54.399Z,3.40
2019-04-01T05:50:25.531Z,3.05
2019-04-01T05:52:54.878Z,3.22
2019-04-01T05:55:26.756Z,2.72
2019-04-01T05:57:57.000Z,3.00
2019-04-01T06:00:33.095Z,3.60
2019-04-01T06:03:02.339Z,3.40
2019-04-01T06:05:38.110Z,3.22
2019-04-01T06:08:07.439Z,3.72
2019-04-01T06:10:36.960Z,3.20
2019-04-01T06:13:06.385Z,3.65
2019-04-01T06:15:38.034Z,3.42
2019-04-01T06:18:09.407Z,3.35
2019-04-01T06:20:40.053Z,3.33
2019-04-01T06:23:10.903Z,2.85
2019-04-01T06:25:43.031Z,3.40
2019-04-01T06:28:20.902Z,3.20
2019-04-01T06:30:50.258Z,3.75
2019-04-01T06:33:21.711Z,3.37
2019-04-01T06:35:53.022Z,4.37
2019-04-01T06:38:29.528Z,2.67
2019-04-01T06:41:00.466Z,3.83
2019-04-01T06:43:38.589Z,3.72
2019-04-01T06:46:10.453Z,3.60
2019-04-01T06:48:39.705Z,3.08
2019-04-01T06:51:09.515Z,3.40
2019-04-01T06:53:38.855Z,3.58
2019-04-01T06:56:11.737Z,3.50
2019-04-01T06:58:42.688Z,3.87
2019-04-01T07:01:12.619Z,4.58
2019-04-01T07:03:43.857Z,4.03
2019-04-01T07:06:13.206Z,4.55
2019-04-01T07:08:42.785Z,3.87
2019-04-01T07:11:13.012Z,4.35
2019-04-01T07:13:42.307Z,3.42
2019-04-01T07:16:15.760Z,4.05
2019-04-01T07:18:44.155Z,3.60
2019-04-01T07:21:16.730Z,3.85
2019-04-01T07:23:47.934Z,3.67
2019-04-01T07:26:21.228Z,3.37
2019-04-01T07:28:55.148Z,3.90
2019-04-01T07:31:24.151Z,3.60
2019-04-01T07:33:54.186Z,3.80
2019-04-01T07:36:23.552Z,3.87
2019-04-01T07:38:54.870Z,4.28
2019-04-01T07:41:36.228Z,4.42
2019-04-01T07:44:05.425Z,4.12
2019-04-01T07:46:39.980Z,4.05
2019-04-01T07:49:12.425Z,3.90
2019-04-01T07:51:45.731Z,4.45
2019-04-01T07:54:18.720Z,4.90
2019-04-01T07:59:22.998Z,4.50
2019-04-01T08:01:53.627Z,4.62
2019-04-01T08:04:24.155Z,4.67
2019-04-01T08:06:54.690Z,4.50
2019-04-01T08:09:26.755Z,4.92
2019-04-01T08:11:55.944Z,4.83
2019-04-01T08:14:29.118Z,4.47
2019-04-01T08:16:59.517Z,4.83
2019-04-01T08:19:30.690Z,4.50
2019-04-01T08:22:00.938Z,4.60
2019-04-01T08:24:32.841Z,4.95
2019-04-01T08:27:02.098Z,5.33
2019-04-01T08:29:31.613Z,4.83
2019-04-01T08:32:05.214Z,5.33
2019-04-01T08:34:36.186Z,5.40
2019-04-01T08:37:08.008Z,5.87
2019-04-01T08:39:38.893Z,4.42
2019-04-01T08:42:08.147Z,4.92
2019-04-01T08:44:38.334Z,5.35
2019-04-01T08:47:08.758Z,5.80
2019-04-01T08:49:37.991Z,5.55
2019-04-01T08:52:07.279Z,6.03
2019-04-01T08:54:37.491Z,5.55
2019-04-01T08:57:07.869Z,6.55
2019-04-01T08:59:38.034Z,6.28
2019-04-01T09:02:17.785Z,6.22
2019-04-01T09:04:38.367Z,7.35
2019-04-01T09:07:08.157Z,6.28
2019-04-01T09:09:38.590Z,5.97
2019-04-01T09:12:09.975Z,6.05
2019-04-01T09:14:42.848Z,6.10
2019-04-01T09:17:14.127Z,5.78
2019-04-01T09:19:47.650Z,6.05
2019-04-01T09:22:20.719Z,6.75
2019-04-01T09:24:52.986Z,7.72
2019-04-01T09:27:24.424Z,7.10
2019-04-01T09:29:54.104Z,7.53
2019-04-01T09:32:24.124Z,7.90
2019-04-01T09:34:54.211Z,8.05
2019-04-01T09:37:25.162Z,7.75
2019-04-01T09:39:59.408Z,7.62
2019-04-01T09:42:28.597Z,8.58
2019-04-01T09:44:58.852Z,7.50
2019-04-01T09:47:28.386Z,8.45
2019-04-01T09:49:59.840Z,8.28
2019-04-01T09:52:29.098Z,8.33
2019-04-01T09:54:59.214Z,8.18
2019-04-01T09:57:30.796Z,9.23
2019-04-01T10:00:01.052Z,8.68
2019-04-01T10:02:33.064Z,9.08
2019-04-01T10:05:03.646Z,8.95
2019-04-01T10:07:36.257Z,9.48
2019-04-01T10:10:06.790Z,9.90
2019-04-01T10:12:37.118Z,8.85
2019-04-01T10:15:08.758Z,8.33
2019-04-01T10:17:39.159Z,9.20
2019-04-01T10:20:10.855Z,9.38
2019-04-01T10:22:41.260Z,9.50
2019-04-01T10:25:10.512Z,10.55
2019-04-01T10:27:43.498Z,9.88
2019-04-01T10:32:57.781Z,9.55
2019-04-01T10:41:23.709Z,9.63
2019-04-01T10:43:53.049Z,10.32
2019-04-01T10:46:23.431Z,10.45
2019-04-01T10:48:52.718Z,11.25
2019-04-01T10:51:23.288Z,12.50
2019-04-01T10:53:55.296Z,10.03
2019-04-01T10:56:24.727Z,10.17
2019-04-01T10:58:54.074Z,11.15
2019-04-01T11:01:23.305Z,10.55
2019-04-01T11:03:52.694Z,10.82
2019-04-01T11:06:23.039Z,11.00
2019-04-01T11:08:52.363Z,11.05
2019-04-01T11:11:21.559Z,10.65
2019-04-01T11:13:51.965Z,9.90
2019-04-01T11:16:21.649Z,10.70
2019-04-01T11:18:50.874Z,11.08
2019-04-01T11:21:20.162Z,10.75
2019-04-01T11:23:49.333Z,11.12
2019-04-01T11:26:18.587Z,12.40
2019-04-01T11:28:50.787Z,11.10
2019-04-01T11:31:19.983Z,11.00
2019-04-01T11:33:49.290Z,10.95
2019-04-01T11:36:18.598Z,11.08
2019-04-01T11:38:49.659Z,11.38
2019-04-01T11:41:19.069Z,11.18
2019-04-01T11:43:49.958Z,11.08
2019-04-01T11:46:19.279Z,10.78
2019-04-01T11:48:48.505Z,11.95
2019-04-01T11:51:31.830Z,12.15
2019-04-01T11:53:48.669Z,12.35
2019-04-01T11:56:19.889Z,11.03
2019-04-01T11:58:49.879Z,11.97
2019-04-01T12:01:19.088Z,11.78
2019-04-01T12:03:54.416Z,12.75
2019-04-01T12:06:24.832Z,11.90
2019-04-01T12:08:54.072Z,12.23
2019-04-01T12:11:23.358Z,12.15
2019-04-01T12:13:52.626Z,12.58
2019-04-01T12:16:23.886Z,12.88
2019-04-01T12:18:55.198Z,12.37
2019-04-01T12:21:24.489Z,13.05
2019-04-01T12:23:56.690Z,12.68
2019-04-01T12:26:26.544Z,12.90
2019-04-01T12:28:56.748Z,13.13
2019-04-01T12:31:26.044Z,12.93
2019-04-01T12:33:55.321Z,13.20
2019-04-01T12:36:24.572Z,12.50
2019-04-01T12:38:53.996Z,12.37
2019-04-01T12:41:23.244Z,12.35
2019-04-01T12:43:52.510Z,12.68
2019-04-01T12:46:23.823Z,12.00
2019-04-01T12:51:58.483Z,13.53
2019-04-01T12:54:29.322Z,13.93
2019-04-01T12:56:58.577Z,13.83
2019-04-01T12:59:28.857Z,13.28
2019-04-01T13:01:58.137Z,13.68
2019-04-01T13:04:36.111Z,13.28
2019-04-01T13:07:05.549Z,13.70
2019-04-01T13:09:36.028Z,13.45
2019-04-01T13:12:05.310Z,12.43
2019-04-01T13:14:34.566Z,13.90
2019-04-01T13:17:03.767Z,13.28
2019-04-01T13:19:33.011Z,15.40
2019-04-01T13:22:02.222Z,14.28
2019-04-01T13:24:34.478Z,13.95
2019-04-01T13:27:09.002Z,13.80
2019-04-01T13:29:37.394Z,14.23
2019-04-01T13:32:06.662Z,14.30
2019-04-01T13:34:35.893Z,13.83
2019-04-01T13:37:05.281Z,16.67
2019-04-01T13:39:34.538Z,15.48
2019-04-01T13:42:03.756Z,14.15
2019-04-01T13:44:37.077Z,13.62
2019-04-01T13:47:04.054Z,14.35
2019-04-01T13:49:34.587Z,14.63
2019-04-01T13:52:03.970Z,14.53
2019-04-01T13:54:34.124Z,14.47
2019-04-01T13:57:03.387Z,14.50
2019-04-01T13:59:32.663Z,15.43
2019-04-01T14:02:07.787Z,15.65
2019-04-01T14:04:37.047Z,14.55
2019-04-01T14:07:09.496Z,15.45
2019-04-01T14:09:38.745Z,15.28
2019-04-01T14:12:07.988Z,14.65
2019-04-01T14:14:37.330Z,15.38
2019-04-01T14:17:06.596Z,14.95
2019-04-01T14:19:36.833Z,15.10
2019-04-01T14:22:09.686Z,15.90
2019-04-01T14:24:42.524Z,14.93
2019-04-01T14:27:10.823Z,15.10
2019-04-01T14:29:42.104Z,15.70
2019-04-01T14:32:11.369Z,15.20
2019-04-01T14:34:40.706Z,15.75
2019-04-01T14:37:10.203Z,14.47
2019-04-01T14:39:44.649Z,16.02
2019-04-01T14:42:14.540Z,15.13
2019-04-01T14:44:47.091Z,15.15
2019-04-01T14:47:17.501Z,14.93
2019-04-01T14:49:48.736Z,15.48
2019-04-01T14:52:31.574Z,15.68
2019-04-01T14:54:54.845Z,15.43
2019-04-01T14:57:23.147Z,15.45
2019-04-01T14:59:55.915Z,16.00
2019-04-01T15:02:23.325Z,14.40
2019-04-01T15:04:52.613Z,14.43
2019-04-01T15:07:24.804Z,16.95
2019-04-01T15:09:54.075Z,16.55
2019-04-01T15:12:23.334Z,15.13
2019-04-01T15:14:52.543Z,15.00
2019-04-01T15:17:21.859Z,15.63
2019-04-01T15:19:51.100Z,16.10
2019-04-01T15:22:20.290Z,15.78
2019-04-01T15:24:49.566Z,15.85
2019-04-01T15:27:22.329Z,16.62
2019-04-01T15:29:49.697Z,14.73
2019-04-01T15:32:20.041Z,14.10
2019-04-01T15:34:52.098Z,15.70
2019-04-01T15:37:22.366Z,15.17
2019-04-01T15:39:52.375Z,15.83
2019-04-01T15:42:27.320Z,14.83
2019-04-01T15:44:56.581Z,15.70
2019-04-01T15:47:25.777Z,15.50
2019-04-01T15:49:55.011Z,15.63
2019-04-01T15:52:24.209Z,16.35
2019-04-01T15:54:53.917Z,15.68
2019-04-01T15:57:23.213Z,16.35
2019-04-01T15:59:52.504Z,15.65
2019-04-01T16:02:22.777Z,15.85
2019-04-01T16:04:52.030Z,15.70
2019-04-01T16:07:24.876Z,15.20
2019-04-01T16:09:54.324Z,15.28
2019-04-01T16:12:24.673Z,15.08
2019-04-01T16:14:53.942Z,14.75
2019-04-01T16:17:23.203Z,14.63
2019-04-01T16:19:52.477Z,14.15
2019-04-01T16:22:22.061Z,15.20
2019-04-01T16:24:51.584Z,15.70
2019-04-01T16:27:20.855Z,15.20
2019-04-01T16:29:50.090Z,15.40
2019-04-01T16:32:19.282Z,14.55
2019-04-01T16:34:48.513Z,15.43
2019-04-01T16:37:17.738Z,17.37
2019-04-01T16:39:48.893Z,17.00
2019-04-01T16:42:19.469Z,14.63
2019-04-01T16:44:49.267Z,14.63
2019-04-01T16:47:21.407Z,15.98
2019-04-01T16:49:50.688Z,15.40
2019-04-01T16:52:19.942Z,15.53
2019-04-01T16:54:57.065Z,15.13
2019-04-01T16:57:26.775Z,15.43
2019-04-01T16:59:56.281Z,15.25
2019-04-01T17:02:26.355Z,16.30
2019-04-01T17:05:00.157Z,15.18
2019-04-01T17:07:27.783Z,15.28
2019-04-01T17:09:58.559Z,15.40
2019-04-01T17:12:28.183Z,15.00
2019-04-01T17:14:57.774Z,15.18
2019-04-01T17:17:27.909Z,14.80
2019-04-01T17:19:57.209Z,15.88
2019-04-01T17:22:26.447Z,15.90
2019-04-01T17:24:57.420Z,13.80
2019-04-01T17:27:27.085Z,15.40
2019-04-01T17:29:56.269Z,14.85
2019-04-01T17:32:25.743Z,15.15
2019-04-01T17:34:54.915Z,13.88
2019-04-01T17:37:24.179Z,14.30
2019-04-01T17:39:53.418Z,14.45
2019-04-01T17:42:22.723Z,14.25
2019-04-01T17:44:57.603Z,14.00
2019-04-01T17:47:27.409Z,14.28
2019-04-01T17:49:57.874Z,15.55
2019-04-01T17:52:32.225Z,14.78
2019-04-01T17:55:01.448Z,14.15
2019-04-01T17:57:31.938Z,15.20
2019-04-01T18:00:01.981Z,14.13
2019-04-01T18:02:31.375Z,14.05
2019-04-01T18:05:01.642Z,14.63
2019-04-01T18:07:36.742Z,14.85
2019-04-01T18:10:06.171Z,15.65
2019-04-01T18:12:35.388Z,13.65
2019-04-01T18:15:05.524Z,14.53
2019-04-01T18:17:34.879Z,14.85
2019-04-01T18:20:06.137Z,14.78
2019-04-01T18:22:36.408Z,15.25
2019-04-01T18:25:06.319Z,14.07
2019-04-01T18:27:35.766Z,14.25
2019-04-01T18:30:11.545Z,14.47
2019-04-01T18:32:40.820Z,15.20
2019-04-01T18:35:12.299Z,16.05
2019-04-01T18:37:42.464Z,15.15
2019-04-01T18:40:13.197Z,15.28
2019-04-01T18:42:42.365Z,14.75
2019-04-01T18:45:12.484Z,15.13
2019-04-01T18:47:41.729Z,14.63
2019-04-01T18:50:16.475Z,15.50
2019-04-01T18:52:45.715Z,14.95
2019-04-01T18:55:14.963Z,14.65
2019-04-01T18:57:45.449Z,14.80
2019-04-01T19:00:18.296Z,14.35
2019-04-01T19:05:15.846Z,14.98
2019-04-01T19:07:47.013Z,15.08
2019-04-01T19:10:18.239Z,14.73
2019-04-01T19:12:49.503Z,14.65
2019-04-01T19:15:21.053Z,14.03
2019-04-01T19:17:50.922Z,15.28
2019-04-01T19:20:23.258Z,15.25
2019-04-01T19:22:52.542Z,16.07
2019-04-01T19:25:23.324Z,14.58
2019-04-01T19:27:53.654Z,14.85
2019-04-01T19:30:24.478Z,16.75
2019-04-01T19:32:53.650Z,16.00
2019-04-01T19:35:28.638Z,15.83
2019-04-01T19:37:58.973Z,15.50
2019-04-01T19:40:28.730Z,15.53
2019-04-01T19:42:58.956Z,16.37
2019-04-01T19:45:28.266Z,15.30
2019-04-01T19:47:57.536Z,15.78
2019-04-01T19:50:27.925Z,16.40
2019-04-01T19:52:57.276Z,16.57
2019-04-01T19:55:26.441Z,16.45
2019-04-01T19:57:59.003Z,16.05
2019-04-01T20:00:30.597Z,16.12
2019-04-01T20:03:00.238Z,16.17
2019-04-01T20:05:29.611Z,18.00
2019-04-01T20:08:00.484Z,16.95
2019-04-01T20:10:29.825Z,17.65
2019-04-01T20:12:59.156Z,17.45
2019-04-01T20:15:28.463Z,16.67
2019-04-01T20:17:59.839Z,17.23
2019-04-01T20:20:30.986Z,17.48
2019-04-01T20:23:00.346Z,16.70
2019-04-01T20:25:29.560Z,17.10
2019-04-01T20:27:58.906Z,17.00
2019-04-01T20:30:30.937Z,17.55
2019-04-01T20:33:00.229Z,17.13
2019-04-01T20:35:34.434Z,18.30
2019-04-01T20:38:03.684Z,17.87
2019-04-01T20:40:32.916Z,17.75
2019-04-01T20:43:04.843Z,19.02
2019-04-01T20:45:34.081Z,18.45
2019-04-01T20:48:04.486Z,18.52
2019-04-01T20:50:34.142Z,18.40
2019-04-01T20:53:05.078Z,19.02
2019-04-01T20:55:47.702Z,18.53
2019-04-01T20:58:07.274Z,17.75
2019-04-01T21:00:39.916Z,19.25
2019-04-01T21:03:14.883Z,17.52
2019-04-01T21:05:44.429Z,17.65
2019-04-01T21:08:16.903Z,18.07
2019-04-01T21:10:48.718Z,18.82
2019-04-01T21:13:17.879Z,18.75
2019-04-01T21:15:48.081Z,17.82
2019-04-01T21:18:17.273Z,18.75
2019-04-01T21:20:47.461Z,18.82
2019-04-01T21:23:17.213Z,18.25
2019-04-01T21:25:46.455Z,19.25
2019-04-01T21:28:15.789Z,17.82
2019-04-01T21:30:45.086Z,17.45
2019-04-01T21:33:14.433Z,18.45
2019-04-01T21:35:43.791Z,17.92
2019-04-01T21:38:15.079Z,17.77
2019-04-01T21:40:44.271Z,17.67
2019-04-01T21:43:13.438Z,18.42
2019-04-01T21:45:42.628Z,18.60
2019-04-01T21:48:11.902Z,18.25
2019-04-01T21:50:41.096Z,19.55
2019-04-01T21:53:10.314Z,18.37
2019-04-01T21:55:39.644Z,18.62
2019-04-01T21:58:08.883Z,18.42
2019-04-01T22:00:55.951Z,18.77
2019-04-01T22:03:26.730Z,18.95
2019-04-01T22:05:55.937Z,18.75
2019-04-01T22:08:26.330Z,19.12
2019-04-01T22:10:56.045Z,19.50
2019-04-01T22:13:28.330Z,19.85
2019-04-01T22:15:58.474Z,20.80
2019-04-01T22:18:32.919Z,21.60
2019-04-01T22:21:01.762Z,19.75
2019-04-01T22:23:30.952Z,20.20
2019-04-01T22:26:00.267Z,20.30
2019-04-01T22:28:29.505Z,20.05
2019-04-01T22:30:58.707Z,20.77
2019-04-01T22:33:28.063Z,20.82
2019-04-01T22:35:58.571Z,21.23
2019-04-01T22:38:27.901Z,21.62
2019-04-01T22:41:00.257Z,20.97
2019-04-01T22:43:29.893Z,21.15
2019-04-01T22:46:00.176Z,21.37
2019-04-01T22:48:29.514Z,21.25
2019-04-01T22:50:58.803Z,21.85
2019-04-01T22:53:28.008Z,21.97
2019-04-01T22:55:58.250Z,20.48
2019-04-01T22:58:27.430Z,20.70
2019-04-01T23:00:58.455Z,23.12
2019-04-01T23:03:30.555Z,21.70
2019-04-01T23:05:59.746Z,22.63
2019-04-01T23:08:28.905Z,21.93
2019-04-01T23:10:58.069Z,21.85
2019-04-01T23:13:27.247Z,21.97
2019-04-01T23:15:56.479Z,21.68
2019-04-01T23:18:25.664Z,21.60
2019-04-01T23:20:55.838Z,22.40
2019-04-01T23:23:25.048Z,21.37
2019-04-01T23:25:55.107Z,20.20
2019-04-01T23:28:24.763Z,21.85
2019-04-01T23:30:54.036Z,21.87
2019-04-01T23:33:23.201Z,22.02
2019-04-01T23:35:52.495Z,21.48
2019-04-01T23:38:21.737Z,22.00
2019-04-01T23:40:52.575Z,22.05
2019-04-01T23:43:22.742Z,22.93
2019-04-01T23:45:51.949Z,22.80
2019-04-01T23:48:21.137Z,24.10
2019-04-01T23:50:51.369Z,21.95
2019-04-01T23:53:20.642Z,23.18
2019-04-01T23:55:51.746Z,24.12
2019-04-01T23:58:22.884Z,22.07
